createdAt,value
2016-10-20T00:00:25.399Z,0
2016-10-20T00:01:07.202Z,0
2016-10-20T00:03:27.942Z,0
2016-10-20T00:04:09.529Z,0
2016-10-20T00:04:51.304Z,0
2016-10-20T00:05:33.014Z,0
2016-10-20T00:06:14.794Z,0
2016-10-20T00:06:56.550Z,0
2016-10-20T00:07:38.169Z,0
2016-10-20T00:08:19.873Z,0
2016-10-20T00:09:01.597Z,0
2016-10-20T00:09:43.277Z,0
2016-10-20T00:12:03.861Z,0
2016-10-20T00:14:19.237Z,0
2016-10-20T00:15:00.681Z,0
2016-10-20T00:15:42.337Z,0
2016-10-20T00:18:03.049Z,0
2016-10-20T00:18:44.638Z,0
2016-10-20T00:21:26.449Z,0
2016-10-20T00:22:08.130Z,0
2016-10-20T00:24:23.550Z,0
2016-10-20T00:26:44.245Z,0
2016-10-20T00:27:25.847Z,0
2016-10-20T00:29:46.381Z,0
2016-10-20T00:30:28.081Z,0
2016-10-20T00:31:09.739Z,0
2016-10-20T00:31:51.594Z,0
2016-10-20T00:32:33.433Z,0
2016-10-20T00:33:15.147Z,0
2016-10-20T00:33:56.732Z,0
2016-10-20T00:34:38.463Z,0
2016-10-20T00:35:20.229Z,0
2016-10-20T00:39:51.207Z,0
2016-10-20T00:40:32.976Z,0
2016-10-20T00:43:14.759Z,0
2016-10-20T00:43:56.462Z,0
2016-10-20T00:44:38.293Z,0
2016-10-20T00:45:19.990Z,0
2016-10-20T00:46:01.702Z,0
2016-10-20T00:46:43.429Z,0
2016-10-20T00:47:24.901Z,0
2016-10-20T00:48:06.448Z,0
2016-10-20T00:48:48.117Z,0
2016-10-20T00:53:13.921Z,0
2016-10-20T00:53:55.671Z,0
2016-10-20T00:54:37.418Z,0
2016-10-20T00:55:19.182Z,0
2016-10-20T00:56:00.863Z,0
2016-10-20T00:56:42.017Z,0
2016-10-20T00:57:22.551Z,0
2016-10-20T00:58:03.086Z,0
2016-10-20T00:58:43.614Z,0
2016-10-20T00:59:24.144Z,0
2016-10-20T01:00:04.643Z,0
2016-10-20T01:00:45.176Z,0
2016-10-20T01:01:25.712Z,0
2016-10-20T01:02:06.236Z,0
2016-10-20T01:02:46.774Z,0
2016-10-20T01:03:27.286Z,0
2016-10-20T01:04:07.837Z,0
2016-10-20T01:04:48.384Z,0
2016-10-20T01:05:28.964Z,0
2016-10-20T01:06:09.486Z,0
2016-10-20T01:06:50.015Z,0
2016-10-20T01:07:30.576Z,0
2016-10-20T01:08:11.105Z,0
2016-10-20T01:08:51.628Z,0
2016-10-20T01:09:32.156Z,0
2016-10-20T01:10:12.676Z,0
2016-10-20T01:10:53.199Z,0
2016-10-20T01:11:33.715Z,0
2016-10-20T01:12:14.282Z,0
2016-10-20T01:12:54.791Z,0
2016-10-20T01:13:35.310Z,0
2016-10-20T01:14:15.855Z,0
2016-10-20T01:14:56.365Z,0
2016-10-20T01:15:36.902Z,0
2016-10-20T01:16:17.441Z,0
2016-10-20T01:16:57.973Z,0
2016-10-20T01:17:38.550Z,0
2016-10-20T01:18:19.150Z,0
2016-10-20T01:18:59.623Z,0
2016-10-20T01:19:40.160Z,0
2016-10-20T01:20:20.710Z,0
2016-10-20T01:21:01.211Z,0
2016-10-20T01:21:41.736Z,0
2016-10-20T01:22:22.260Z,0
2016-10-20T01:23:02.786Z,0
2016-10-20T01:23:43.322Z,0
2016-10-20T01:24:23.862Z,0
2016-10-20T01:25:04.384Z,0
2016-10-20T01:25:44.931Z,0
2016-10-20T01:26:25.466Z,0
2016-10-20T01:27:05.986Z,0
2016-10-20T01:27:46.508Z,0
2016-10-20T01:28:27.050Z,0
2016-10-20T01:29:07.583Z,0
2016-10-20T01:29:48.116Z,0
2016-10-20T01:30:28.635Z,0
2016-10-20T01:31:09.163Z,0
2016-10-20T01:31:49.714Z,0
2016-10-20T01:32:30.245Z,0
2016-10-20T01:33:10.780Z,0
2016-10-20T01:33:51.314Z,0
2016-10-20T01:34:31.859Z,0
2016-10-20T01:35:12.371Z,0
2016-10-20T01:35:52.921Z,0
2016-10-20T01:36:33.451Z,0
2016-10-20T01:37:13.977Z,0
2016-10-20T01:37:54.498Z,0
2016-10-20T01:38:35.008Z,0
2016-10-20T01:39:15.543Z,0
2016-10-20T01:39:56.100Z,0
2016-10-20T01:40:36.652Z,0
2016-10-20T01:41:17.181Z,0
2016-10-20T01:41:57.736Z,0
2016-10-20T01:42:38.275Z,0
2016-10-20T01:43:18.806Z,0
2016-10-20T01:43:59.339Z,0
2016-10-20T01:44:39.868Z,0
2016-10-20T01:45:20.413Z,0
2016-10-20T01:46:00.960Z,0
2016-10-20T01:46:41.480Z,0
2016-10-20T01:47:22.002Z,0
2016-10-20T01:48:02.518Z,0
2016-10-20T01:48:43.047Z,0
2016-10-20T01:49:23.599Z,0
2016-10-20T01:50:04.211Z,0
2016-10-20T01:50:44.671Z,0
2016-10-20T01:51:25.215Z,0
2016-10-20T01:52:05.731Z,0
2016-10-20T01:52:46.262Z,0
2016-10-20T01:53:26.776Z,0
2016-10-20T01:54:07.305Z,0
2016-10-20T01:54:47.832Z,0
2016-10-20T01:55:28.408Z,0
2016-10-20T01:56:08.930Z,0
2016-10-20T01:56:49.470Z,0
2016-10-20T01:57:30.003Z,0
2016-10-20T01:58:10.523Z,0
2016-10-20T01:58:51.059Z,0
2016-10-20T01:59:31.571Z,0
2016-10-20T02:00:12.105Z,0
2016-10-20T02:00:52.639Z,0
2016-10-20T02:01:33.154Z,0
2016-10-20T02:02:13.690Z,0
2016-10-20T02:02:54.231Z,0
2016-10-20T02:03:34.757Z,0
2016-10-20T02:04:15.269Z,0
2016-10-20T02:04:55.871Z,0
2016-10-20T02:05:36.375Z,0
2016-10-20T02:06:16.880Z,0
2016-10-20T02:06:57.411Z,0
2016-10-20T02:07:37.925Z,0
2016-10-20T02:08:18.450Z,0
2016-10-20T02:08:58.971Z,0
2016-10-20T02:09:39.507Z,0
2016-10-20T02:10:20.074Z,0
2016-10-20T02:11:00.608Z,0
2016-10-20T02:11:41.165Z,0
2016-10-20T02:12:21.700Z,0
2016-10-20T02:13:02.226Z,0
2016-10-20T02:13:42.900Z,0
2016-10-20T02:14:23.283Z,0
2016-10-20T02:15:03.883Z,0
2016-10-20T02:15:44.365Z,0
2016-10-20T02:16:24.897Z,0
2016-10-20T02:17:05.448Z,0
2016-10-20T02:17:45.998Z,0
2016-10-20T02:18:26.503Z,0
2016-10-20T02:19:07.011Z,0
2016-10-20T02:19:47.552Z,0
2016-10-20T02:20:28.068Z,0
2016-10-20T02:21:08.602Z,0
2016-10-20T02:21:49.123Z,0
2016-10-20T02:22:29.646Z,0
2016-10-20T02:23:10.203Z,0
2016-10-20T02:23:50.735Z,0
2016-10-20T02:24:31.277Z,0
2016-10-20T02:25:11.837Z,0
2016-10-20T02:25:52.375Z,0
2016-10-20T02:26:32.864Z,0
2016-10-20T02:27:13.497Z,0
2016-10-20T02:27:54.024Z,0
2016-10-20T02:28:34.711Z,0
2016-10-20T02:29:15.258Z,0
2016-10-20T02:29:55.739Z,0
2016-10-20T02:30:36.454Z,0
2016-10-20T02:31:16.948Z,0
2016-10-20T02:31:57.579Z,0
2016-10-20T02:32:38.175Z,0
2016-10-20T02:33:18.606Z,0
2016-10-20T02:33:59.154Z,0
2016-10-20T02:34:39.718Z,0
2016-10-20T02:35:20.211Z,0
2016-10-20T02:36:00.737Z,0
2016-10-20T02:36:41.299Z,0
2016-10-20T02:37:21.829Z,0
2016-10-20T02:38:02.382Z,0
2016-10-20T02:38:42.926Z,0
2016-10-20T02:39:23.451Z,0
2016-10-20T02:40:03.956Z,0
2016-10-20T02:40:44.485Z,0
2016-10-20T02:41:25.940Z,0
2016-10-20T02:42:06.469Z,0
2016-10-20T02:42:46.972Z,0
2016-10-20T02:43:27.498Z,0
2016-10-20T02:44:08.026Z,0
2016-10-20T02:44:48.593Z,0
2016-10-20T02:45:29.155Z,0
2016-10-20T02:46:09.678Z,0
2016-10-20T02:46:50.195Z,0
2016-10-20T02:47:30.719Z,0
2016-10-20T02:48:11.241Z,0
2016-10-20T02:48:51.820Z,0
2016-10-20T02:49:32.356Z,0
2016-10-20T02:50:12.869Z,0
2016-10-20T02:50:53.409Z,0
2016-10-20T02:51:33.937Z,0
2016-10-20T02:52:14.462Z,0
2016-10-20T02:52:54.986Z,0
2016-10-20T02:53:35.537Z,0
2016-10-20T02:54:16.060Z,0
2016-10-20T02:54:56.572Z,0
2016-10-20T02:55:37.096Z,0
2016-10-20T02:56:17.664Z,0
2016-10-20T02:56:58.171Z,0
2016-10-20T02:57:38.800Z,0
2016-10-20T02:58:19.404Z,0
2016-10-20T02:58:59.803Z,0
2016-10-20T02:59:40.289Z,0
2016-10-20T03:00:20.810Z,0
2016-10-20T03:01:01.294Z,0
2016-10-20T03:01:41.845Z,0
2016-10-20T03:02:22.318Z,0
2016-10-20T03:03:02.812Z,0
2016-10-20T03:03:43.361Z,0
2016-10-20T03:04:23.846Z,0
2016-10-20T03:05:04.360Z,0
2016-10-20T03:05:44.865Z,0
2016-10-20T03:06:25.381Z,0
2016-10-20T03:07:05.923Z,0
2016-10-20T03:07:46.442Z,0
2016-10-20T03:08:26.965Z,0
2016-10-20T03:09:07.464Z,0
2016-10-20T03:09:47.973Z,0
2016-10-20T03:10:28.471Z,0
2016-10-20T03:11:09.095Z,0
2016-10-20T03:11:49.617Z,0
2016-10-20T03:12:30.151Z,0
2016-10-20T03:13:10.696Z,0
2016-10-20T03:13:51.208Z,0
2016-10-20T03:14:31.713Z,0
2016-10-20T03:15:12.242Z,0
2016-10-20T03:15:52.808Z,0
2016-10-20T03:16:33.310Z,0
2016-10-20T03:18:47.705Z,0
2016-10-20T03:19:28.218Z,0
2016-10-20T03:20:08.757Z,0
2016-10-20T03:20:49.301Z,0
2016-10-20T03:21:29.848Z,0
2016-10-20T03:22:10.348Z,0
2016-10-20T03:22:50.857Z,0
2016-10-20T03:23:31.382Z,0
2016-10-20T03:24:11.919Z,0
2016-10-20T03:24:52.432Z,0
2016-10-20T03:25:32.973Z,0
2016-10-20T03:26:13.480Z,0
2016-10-20T03:26:54.003Z,0
2016-10-20T03:27:34.531Z,0
2016-10-20T03:28:15.039Z,0
2016-10-20T03:28:55.575Z,0
2016-10-20T03:29:36.087Z,0
2016-10-20T03:30:16.596Z,0
2016-10-20T03:30:57.101Z,0
2016-10-20T03:31:37.632Z,0
2016-10-20T03:32:18.188Z,0
2016-10-20T03:32:58.726Z,0
2016-10-20T03:33:39.232Z,0
2016-10-20T03:34:19.756Z,0
2016-10-20T03:35:00.284Z,0
2016-10-20T03:35:40.806Z,0
2016-10-20T03:36:21.320Z,0
2016-10-20T03:37:01.854Z,0
2016-10-20T03:37:42.370Z,0
2016-10-20T03:38:22.889Z,0
2016-10-20T03:39:03.402Z,0
2016-10-20T03:39:43.940Z,0
2016-10-20T03:40:24.474Z,0
2016-10-20T03:41:05.001Z,0
2016-10-20T03:41:45.507Z,0
2016-10-20T03:42:26.025Z,0
2016-10-20T03:43:06.539Z,0
2016-10-20T03:43:47.077Z,0
2016-10-20T03:44:27.584Z,0
2016-10-20T03:45:08.095Z,0
2016-10-20T03:45:48.616Z,0
2016-10-20T03:46:29.126Z,0
2016-10-20T03:47:09.651Z,0
2016-10-20T03:47:50.161Z,0
2016-10-20T03:48:30.688Z,0
2016-10-20T03:49:11.200Z,0
2016-10-20T03:49:51.723Z,0
2016-10-20T03:50:32.255Z,0
2016-10-20T03:51:12.769Z,0
2016-10-20T03:51:53.282Z,0
2016-10-20T03:52:33.800Z,0
2016-10-20T03:53:14.352Z,0
2016-10-20T03:53:54.873Z,0
2016-10-20T03:54:35.403Z,0
2016-10-20T03:55:15.922Z,0
2016-10-20T03:55:56.452Z,0
2016-10-20T03:56:36.997Z,0
2016-10-20T03:57:17.487Z,0
2016-10-20T03:57:58.014Z,0
2016-10-20T03:58:38.540Z,0
2016-10-20T03:59:19.035Z,0
2016-10-20T03:59:59.680Z,0
2016-10-20T04:00:40.068Z,0
2016-10-20T04:01:20.592Z,0
2016-10-20T04:02:01.119Z,0
2016-10-20T04:02:41.665Z,0
2016-10-20T04:03:22.170Z,0
2016-10-20T04:04:02.684Z,0
2016-10-20T04:04:43.247Z,0
2016-10-20T04:05:23.774Z,0
2016-10-20T04:06:04.312Z,0
2016-10-20T04:06:44.833Z,0
2016-10-20T04:07:25.345Z,0
2016-10-20T04:08:05.889Z,0
2016-10-20T04:08:46.408Z,0
2016-10-20T04:09:26.946Z,0
2016-10-20T04:10:07.461Z,0
2016-10-20T04:10:47.985Z,0
2016-10-20T04:11:28.515Z,0
2016-10-20T04:12:09.045Z,0
2016-10-20T04:12:49.570Z,0
2016-10-20T04:13:30.088Z,0
2016-10-20T04:14:10.621Z,0
2016-10-20T04:14:51.150Z,0
2016-10-20T04:15:31.654Z,0
2016-10-20T04:16:12.171Z,0
2016-10-20T04:16:52.709Z,0
2016-10-20T04:17:33.259Z,0
2016-10-20T04:18:13.783Z,0
2016-10-20T04:18:54.303Z,0
2016-10-20T04:19:34.839Z,0
2016-10-20T04:20:15.367Z,0
2016-10-20T04:20:55.904Z,0
2016-10-20T04:21:36.433Z,0
2016-10-20T04:22:16.946Z,0
2016-10-20T04:22:57.521Z,0
2016-10-20T04:23:38.003Z,0
2016-10-20T04:24:18.525Z,0
2016-10-20T04:24:59.029Z,0
2016-10-20T04:25:39.541Z,0
2016-10-20T04:26:20.061Z,0
2016-10-20T04:27:00.582Z,0
2016-10-20T04:27:41.102Z,0
2016-10-20T04:28:21.611Z,0
2016-10-20T04:29:02.123Z,0
2016-10-20T04:29:42.660Z,0
2016-10-20T04:30:23.163Z,0
2016-10-20T04:31:03.676Z,0
2016-10-20T04:31:44.218Z,0
2016-10-20T04:32:24.760Z,0
2016-10-20T04:33:05.307Z,0
2016-10-20T04:33:45.826Z,0
2016-10-20T04:34:26.344Z,0
2016-10-20T04:35:06.853Z,0
2016-10-20T04:35:47.378Z,0
2016-10-20T04:36:27.890Z,0
2016-10-20T04:37:08.413Z,0
2016-10-20T04:37:48.918Z,0
2016-10-20T04:38:29.424Z,0
2016-10-20T04:39:09.957Z,0
2016-10-20T04:39:50.447Z,0
2016-10-20T04:40:30.977Z,0
2016-10-20T04:41:11.512Z,0
2016-10-20T04:41:52.048Z,0
2016-10-20T04:42:32.561Z,0
2016-10-20T04:43:13.094Z,0
2016-10-20T04:43:53.600Z,0
2016-10-20T04:44:34.120Z,0
2016-10-20T04:45:14.633Z,0
2016-10-20T04:45:55.166Z,0
2016-10-20T04:46:35.707Z,0
2016-10-20T04:47:16.218Z,0
2016-10-20T04:47:56.734Z,0
2016-10-20T04:48:37.282Z,0
2016-10-20T04:49:17.819Z,0
2016-10-20T04:49:58.332Z,0
2016-10-20T04:50:38.852Z,0
2016-10-20T04:51:19.393Z,0
2016-10-20T04:51:59.931Z,0
2016-10-20T04:52:40.477Z,0
2016-10-20T04:53:20.986Z,0
2016-10-20T04:54:01.515Z,0
2016-10-20T04:54:42.045Z,0
2016-10-20T04:55:22.583Z,0
2016-10-20T04:56:03.094Z,0
2016-10-20T04:56:43.589Z,0
2016-10-20T04:57:24.133Z,0
2016-10-20T04:58:04.666Z,0
2016-10-20T04:58:45.170Z,0
2016-10-20T04:59:25.692Z,0
2016-10-20T05:00:06.245Z,0
2016-10-20T05:00:46.740Z,0
2016-10-20T05:01:27.251Z,0
2016-10-20T05:02:07.781Z,0
2016-10-20T05:02:48.289Z,0
2016-10-20T05:03:28.791Z,0
2016-10-20T05:04:09.292Z,0
2016-10-20T05:04:49.807Z,0
2016-10-20T05:05:30.327Z,0
2016-10-20T05:06:10.834Z,0
2016-10-20T05:06:51.405Z,0
2016-10-20T05:07:31.926Z,0
2016-10-20T05:08:12.442Z,0
2016-10-20T05:08:52.979Z,0
2016-10-20T05:09:33.471Z,0
2016-10-20T05:10:13.992Z,0
2016-10-20T05:10:54.516Z,0
2016-10-20T05:11:35.042Z,0
2016-10-20T05:12:15.566Z,0
2016-10-20T05:12:56.072Z,0
2016-10-20T05:13:36.582Z,0
2016-10-20T05:14:17.103Z,0
2016-10-20T05:14:57.617Z,0
2016-10-20T05:15:38.133Z,0
2016-10-20T05:16:18.643Z,0
2016-10-20T05:16:59.151Z,0
2016-10-20T05:17:39.677Z,0
2016-10-20T05:18:20.192Z,0
2016-10-20T05:19:00.741Z,0
2016-10-20T05:19:41.214Z,0
2016-10-20T05:20:21.754Z,0
2016-10-20T05:21:02.254Z,0
2016-10-20T05:21:42.772Z,0
2016-10-20T05:22:23.294Z,0
2016-10-20T05:23:03.815Z,0
2016-10-20T05:23:44.328Z,0
2016-10-20T05:24:24.858Z,0
2016-10-20T05:25:05.401Z,0
2016-10-20T05:25:45.945Z,0
2016-10-20T05:26:26.452Z,0
2016-10-20T05:27:06.966Z,0
2016-10-20T05:27:47.492Z,0
2016-10-20T05:28:28.041Z,0
2016-10-20T05:29:08.554Z,0
2016-10-20T05:29:49.080Z,0
2016-10-20T05:30:29.598Z,0
2016-10-20T05:31:10.132Z,0
2016-10-20T05:31:50.633Z,0
2016-10-20T05:32:31.142Z,0
2016-10-20T05:33:11.688Z,0
2016-10-20T05:33:52.191Z,0
2016-10-20T05:34:32.719Z,0
2016-10-20T05:35:13.242Z,0
2016-10-20T05:35:53.762Z,0
2016-10-20T05:36:34.291Z,0
2016-10-20T05:37:14.810Z,0
2016-10-20T05:37:55.328Z,0
2016-10-20T05:38:35.795Z,0
2016-10-20T05:39:16.309Z,0
2016-10-20T05:39:56.800Z,0
2016-10-20T05:40:37.309Z,0
2016-10-20T05:41:17.809Z,0
2016-10-20T05:41:58.322Z,0
2016-10-20T05:42:38.807Z,0
2016-10-20T05:43:19.320Z,0
2016-10-20T05:43:59.819Z,0
2016-10-20T05:44:40.332Z,0
2016-10-20T05:45:20.848Z,0
2016-10-20T05:46:01.349Z,0
2016-10-20T05:46:41.912Z,0
2016-10-20T05:47:22.432Z,0
2016-10-20T05:48:02.920Z,0
2016-10-20T05:48:43.426Z,0
2016-10-20T05:49:23.951Z,0
2016-10-20T05:50:04.460Z,0
2016-10-20T05:50:44.982Z,0
2016-10-20T05:51:25.490Z,0
2016-10-20T05:52:06.007Z,0
2016-10-20T05:52:46.525Z,0
2016-10-20T05:53:27.027Z,0
2016-10-20T05:54:07.540Z,0
2016-10-20T05:54:48.053Z,0
2016-10-20T05:55:28.545Z,0
2016-10-20T05:56:09.073Z,0
2016-10-20T05:56:49.564Z,0
2016-10-20T05:57:30.105Z,0
2016-10-20T05:58:10.618Z,0
2016-10-20T05:58:51.112Z,0
2016-10-20T05:59:31.637Z,0
2016-10-20T06:00:12.142Z,0
2016-10-20T06:00:52.638Z,0
2016-10-20T06:01:33.144Z,0
2016-10-20T06:02:13.631Z,0
2016-10-20T06:02:54.148Z,0
2016-10-20T06:03:34.649Z,0
2016-10-20T06:04:15.166Z,0
2016-10-20T06:04:55.693Z,0
2016-10-20T06:05:36.200Z,0
2016-10-20T06:06:16.717Z,0
2016-10-20T06:06:57.208Z,0
2016-10-20T06:07:37.728Z,5
2016-10-20T06:08:18.207Z,5
2016-10-20T06:08:58.695Z,5
2016-10-20T06:09:39.198Z,5
2016-10-20T06:10:19.691Z,5
2016-10-20T06:11:00.174Z,5
2016-10-20T06:11:40.700Z,5
2016-10-20T06:12:21.175Z,5
2016-10-20T06:13:01.694Z,5
2016-10-20T06:13:42.166Z,5
2016-10-20T06:14:22.672Z,5
2016-10-20T06:15:03.173Z,5
2016-10-20T06:15:43.669Z,5
2016-10-20T06:16:24.165Z,5
2016-10-20T06:17:04.658Z,5
2016-10-20T06:17:45.167Z,5
2016-10-20T06:18:25.671Z,5
2016-10-20T06:19:06.179Z,5
2016-10-20T06:19:46.715Z,5
2016-10-20T06:20:27.216Z,5
2016-10-20T06:21:07.719Z,5
2016-10-20T06:21:48.231Z,5
2016-10-20T06:22:28.761Z,10
2016-10-20T06:23:09.283Z,10
2016-10-20T06:23:49.842Z,10
2016-10-20T06:24:30.482Z,10
2016-10-20T06:25:10.961Z,15
2016-10-20T06:25:51.504Z,15
2016-10-20T06:26:32.031Z,15
2016-10-20T06:27:12.515Z,15
2016-10-20T06:27:53.029Z,15
2016-10-20T06:28:33.565Z,15
2016-10-20T06:29:14.067Z,10
2016-10-20T06:29:54.585Z,10
2016-10-20T06:30:35.083Z,10
2016-10-20T06:31:15.582Z,10
2016-10-20T06:31:56.094Z,10
2016-10-20T06:32:36.590Z,15
2016-10-20T06:33:17.101Z,15
2016-10-20T06:33:57.669Z,15
2016-10-20T06:34:38.187Z,15
2016-10-20T06:35:18.691Z,15
2016-10-20T06:35:59.202Z,15
2016-10-20T06:36:39.716Z,15
2016-10-20T06:37:20.224Z,15
2016-10-20T06:38:00.733Z,15
2016-10-20T06:38:41.239Z,20
2016-10-20T06:39:21.762Z,20
2016-10-20T06:40:02.305Z,20
2016-10-20T06:40:42.832Z,25
2016-10-20T06:41:23.342Z,25
2016-10-20T06:42:03.838Z,30
2016-10-20T06:42:44.361Z,35
2016-10-20T06:43:24.863Z,35
2016-10-20T06:44:05.366Z,35
2016-10-20T06:44:45.884Z,40
2016-10-20T06:45:26.404Z,40
2016-10-20T06:46:06.901Z,40
2016-10-20T06:46:47.414Z,45
2016-10-20T06:47:27.922Z,45
2016-10-20T06:48:08.435Z,50
2016-10-20T06:48:48.935Z,50
2016-10-20T06:49:29.436Z,55
2016-10-20T06:50:09.959Z,55
2016-10-20T06:50:50.524Z,60
2016-10-20T06:51:31.030Z,60
2016-10-20T06:52:11.566Z,55
2016-10-20T06:52:52.043Z,55
2016-10-20T06:53:32.572Z,55
2016-10-20T06:54:13.093Z,55
2016-10-20T06:54:53.610Z,60
2016-10-20T06:55:34.105Z,60
2016-10-20T06:56:14.669Z,55
2016-10-20T07:03:52.421Z,65
2016-10-20T07:04:39.107Z,65
2016-10-20T07:05:25.928Z,65
2016-10-20T07:08:12.569Z,65
2016-10-20T07:10:40.692Z,50
2016-10-20T07:15:11.177Z,45
2016-10-20T07:23:21.184Z,35
2016-10-20T07:24:09.209Z,35
2016-10-20T07:24:53.673Z,35
2016-10-20T07:25:41.486Z,40
2016-10-20T07:28:21.239Z,45
2016-10-20T07:29:04.060Z,50
2016-10-20T07:29:49.494Z,55
2016-10-20T07:32:35.447Z,70
2016-10-20T07:33:21.151Z,75
2016-10-20T07:34:01.789Z,85
2016-10-20T07:34:48.487Z,85
2016-10-20T07:41:06.365Z,95
2016-10-20T07:41:53.823Z,95
2016-10-20T07:42:35.636Z,95
2016-10-20T07:43:21.453Z,85
2016-10-20T07:47:47.984Z,85
2016-10-20T07:48:35.987Z,110
2016-10-20T07:49:20.897Z,110
2016-10-20T07:50:04.884Z,115
2016-10-20T07:52:50.155Z,100
2016-10-20T07:53:38.958Z,95
2016-10-20T07:54:20.977Z,85
2016-10-20T07:57:06.810Z,85
2016-10-20T08:01:36.125Z,95
2016-10-20T08:04:11.279Z,100
2016-10-20T08:08:33.933Z,100
2016-10-20T08:13:14.872Z,120
2016-10-20T08:14:00.023Z,115
2016-10-20T08:16:17.916Z,105
2016-10-20T08:16:59.260Z,120
2016-10-20T08:19:37.147Z,180
2016-10-20T08:20:23.074Z,160
2016-10-20T08:21:03.810Z,145
2016-10-20T08:21:44.319Z,135
2016-10-20T08:22:24.843Z,130
2016-10-20T08:23:05.339Z,110
2016-10-20T08:23:46.012Z,110
2016-10-20T08:24:26.577Z,135
2016-10-20T08:25:07.098Z,145
2016-10-20T08:25:47.631Z,135
2016-10-20T08:26:28.157Z,120
2016-10-20T08:27:08.674Z,115
2016-10-20T08:27:49.351Z,125
2016-10-20T08:28:29.868Z,120
2016-10-20T08:29:10.385Z,115
2016-10-20T08:29:50.901Z,125
2016-10-20T08:30:31.394Z,120
2016-10-20T08:31:11.940Z,100
2016-10-20T08:31:52.462Z,100
2016-10-20T08:32:32.962Z,90
2016-10-20T08:33:13.470Z,90
2016-10-20T08:33:54.002Z,90
2016-10-20T08:34:34.543Z,100
2016-10-20T08:35:15.065Z,125
2016-10-20T08:35:55.577Z,135
2016-10-20T08:36:36.124Z,150
2016-10-20T08:37:16.656Z,145
2016-10-20T08:37:57.209Z,145
2016-10-20T08:38:37.731Z,155
2016-10-20T08:39:18.240Z,175
2016-10-20T08:39:58.780Z,185
2016-10-20T08:40:39.292Z,205
2016-10-20T08:41:19.818Z,190
2016-10-20T08:42:00.348Z,180
2016-10-20T08:42:40.878Z,195
2016-10-20T08:43:21.405Z,210
2016-10-20T08:44:01.923Z,210
2016-10-20T08:44:42.442Z,210
2016-10-20T08:45:22.976Z,215
2016-10-20T08:46:03.517Z,235
2016-10-20T08:46:44.048Z,245
2016-10-20T08:47:24.563Z,245
2016-10-20T08:48:05.094Z,240
2016-10-20T08:48:45.614Z,230
2016-10-20T08:49:26.167Z,225
2016-10-20T08:50:06.697Z,215
2016-10-20T08:50:47.211Z,205
2016-10-20T08:51:27.743Z,200
2016-10-20T08:52:08.282Z,185
2016-10-20T08:52:48.787Z,180
2016-10-20T08:53:29.308Z,195
2016-10-20T08:54:09.816Z,200
2016-10-20T08:54:50.328Z,205
2016-10-20T08:55:30.848Z,210
2016-10-20T08:56:11.377Z,205
2016-10-20T08:56:51.887Z,190
2016-10-20T08:57:32.399Z,175
2016-10-20T08:58:12.929Z,170
2016-10-20T08:58:53.459Z,170
2016-10-20T08:59:33.991Z,165
2016-10-20T09:00:14.506Z,160
2016-10-20T09:00:54.999Z,160
2016-10-20T09:01:35.515Z,160
2016-10-20T09:02:16.040Z,175
2016-10-20T09:02:56.571Z,175
2016-10-20T09:03:37.093Z,180
2016-10-20T09:04:17.601Z,180
2016-10-20T09:04:58.132Z,200
2016-10-20T09:05:38.654Z,230
2016-10-20T09:06:19.157Z,245
2016-10-20T09:06:59.671Z,260
2016-10-20T09:07:40.172Z,275
2016-10-20T09:08:20.693Z,280
2016-10-20T09:09:01.209Z,280
2016-10-20T09:09:41.728Z,285
2016-10-20T09:10:22.262Z,300
2016-10-20T09:11:02.783Z,305
2016-10-20T09:11:43.330Z,315
2016-10-20T09:12:23.822Z,320
2016-10-20T09:13:04.336Z,300
2016-10-20T09:13:44.874Z,270
2016-10-20T09:14:25.391Z,250
2016-10-20T09:15:05.869Z,260
2016-10-20T09:15:46.415Z,265
2016-10-20T09:16:26.905Z,260
2016-10-20T09:17:07.446Z,265
2016-10-20T09:17:47.949Z,265
2016-10-20T09:18:28.481Z,250
2016-10-20T09:19:09.002Z,235
2016-10-20T09:19:49.522Z,215
2016-10-20T09:20:30.048Z,195
2016-10-20T09:21:10.544Z,165
2016-10-20T09:21:51.076Z,165
2016-10-20T09:22:31.567Z,180
2016-10-20T09:23:12.107Z,200
2016-10-20T09:23:52.608Z,190
2016-10-20T09:24:33.101Z,185
2016-10-20T09:25:13.633Z,175
2016-10-20T09:25:54.136Z,165
2016-10-20T09:26:34.622Z,170
2016-10-20T09:27:15.165Z,190
2016-10-20T09:27:55.685Z,205
2016-10-20T09:28:36.199Z,225
2016-10-20T09:29:16.713Z,210
2016-10-20T09:29:57.230Z,200
2016-10-20T09:30:38.136Z,205
2016-10-20T09:31:18.536Z,220
2016-10-20T09:31:59.043Z,225
2016-10-20T09:32:39.582Z,225
2016-10-20T09:33:20.191Z,215
2016-10-20T09:34:00.709Z,260
2016-10-20T09:34:41.229Z,350
2016-10-20T09:35:21.716Z,405
2016-10-20T09:36:02.227Z,440
2016-10-20T09:36:42.783Z,455
2016-10-20T09:37:23.284Z,440
2016-10-20T09:38:03.829Z,420
2016-10-20T09:38:44.330Z,365
2016-10-20T09:39:24.859Z,320
2016-10-20T09:40:05.381Z,300
2016-10-20T09:40:46.229Z,285
2016-10-20T09:41:26.903Z,250
2016-10-20T09:42:07.426Z,230
2016-10-20T09:42:47.963Z,195
2016-10-20T09:43:28.516Z,175
2016-10-20T09:44:09.055Z,160
2016-10-20T09:44:49.659Z,160
2016-10-20T09:45:30.254Z,155
2016-10-20T09:46:10.770Z,135
2016-10-20T09:46:51.264Z,125
2016-10-20T09:47:31.793Z,125
2016-10-20T09:48:12.304Z,115
2016-10-20T09:48:52.815Z,115
2016-10-20T09:49:33.331Z,110
2016-10-20T09:50:13.861Z,105
2016-10-20T09:50:54.381Z,105
2016-10-20T09:51:34.913Z,105
2016-10-20T09:52:15.472Z,105
2016-10-20T09:52:56.024Z,100
2016-10-20T09:53:36.500Z,95
2016-10-20T09:54:17.027Z,90
2016-10-20T09:54:57.504Z,90
2016-10-20T09:55:38.204Z,85
2016-10-20T09:56:18.740Z,80
2016-10-20T09:56:59.405Z,75
2016-10-20T09:57:39.980Z,70
2016-10-20T09:58:20.517Z,70
2016-10-20T09:59:01.016Z,70
2016-10-20T09:59:41.555Z,65
2016-10-20T10:00:22.088Z,65
2016-10-20T10:01:02.648Z,60
2016-10-20T10:01:43.658Z,60
2016-10-20T10:02:24.189Z,65
2016-10-20T10:03:04.670Z,65
2016-10-20T10:03:45.177Z,70
2016-10-20T10:04:25.725Z,80
2016-10-20T10:05:06.412Z,80
2016-10-20T10:05:46.876Z,80
2016-10-20T10:06:27.389Z,75
2016-10-20T10:07:07.936Z,75
2016-10-20T10:07:48.460Z,75
2016-10-20T10:08:29.040Z,70
2016-10-20T10:09:09.700Z,70
2016-10-20T10:09:50.514Z,75
2016-10-20T10:10:31.048Z,75
2016-10-20T10:11:11.532Z,75
2016-10-20T10:11:52.092Z,70
2016-10-20T10:12:32.552Z,65
2016-10-20T10:13:13.052Z,65
2016-10-20T10:13:53.589Z,55
2016-10-20T10:14:34.062Z,55
2016-10-20T10:15:14.691Z,65
2016-10-20T10:15:55.177Z,75
2016-10-20T10:16:35.640Z,70
2016-10-20T10:17:16.241Z,65
2016-10-20T10:17:56.756Z,60
2016-10-20T10:18:37.317Z,65
2016-10-20T10:19:18.091Z,75
2016-10-20T10:19:58.575Z,75
2016-10-20T10:20:39.102Z,80
2016-10-20T10:21:19.589Z,95
2016-10-20T10:22:00.173Z,105
2016-10-20T10:22:40.678Z,115
2016-10-20T10:23:21.581Z,115
2016-10-20T10:24:02.093Z,110
2016-10-20T10:24:42.663Z,120
2016-10-20T10:25:23.274Z,130
2016-10-20T10:26:03.825Z,135
2016-10-20T10:26:44.393Z,135
2016-10-20T10:27:24.965Z,135
2016-10-20T10:28:05.711Z,135
2016-10-20T10:28:46.217Z,130
2016-10-20T10:29:27.000Z,125
2016-10-20T10:30:07.762Z,125
2016-10-20T10:30:50.853Z,135
2016-10-20T10:31:31.506Z,140
2016-10-20T10:32:12.053Z,145
2016-10-20T10:32:52.602Z,145
2016-10-20T10:33:33.097Z,140
2016-10-20T10:34:14.338Z,135
2016-10-20T10:34:55.240Z,120
2016-10-20T10:35:37.617Z,100
2016-10-20T10:36:21.612Z,85
2016-10-20T10:37:03.222Z,75
2016-10-20T10:40:32.622Z,115
2016-10-20T10:41:14.067Z,110
2016-10-20T10:41:56.756Z,105
2016-10-20T10:42:37.235Z,100
2016-10-20T10:43:17.936Z,90
2016-10-20T10:43:58.460Z,95
2016-10-20T10:44:39.010Z,105
2016-10-20T10:45:20.685Z,120
2016-10-20T10:46:01.092Z,140
2016-10-20T10:46:42.291Z,135
2016-10-20T10:47:22.831Z,135
2016-10-20T10:48:03.400Z,140
2016-10-20T10:48:44.009Z,140
2016-10-20T10:49:24.489Z,130
2016-10-20T10:50:06.602Z,105
2016-10-20T10:50:46.926Z,90
2016-10-20T10:53:03.780Z,105
2016-10-20T10:53:44.044Z,125
2016-10-20T10:54:24.543Z,135
2016-10-20T10:55:05.070Z,155
2016-10-20T10:55:45.624Z,160
2016-10-20T10:56:26.097Z,160
2016-10-20T10:57:08.599Z,155
2016-10-20T10:57:59.793Z,145
2016-10-20T11:02:22.016Z,135
2016-10-20T11:03:04.860Z,130
2016-10-20T11:03:56.139Z,125
